Time;durP1;ratioP1;P1;durP2;ratioP2;P2;SDS_P1;SDS_P2;PMS_P1;PMS_P2;Temp;Humidity;BMP_temperature;BMP_pressure;BME280_temperature;BME280_humidity;BME280_pressure;Samples;Min_cycle;Max_cycle;Signal;HPM_P1;HPM_P2
2023/08/28 00:00:33;;;;;;;;;3.67;2.67;;;;;15.24;100.00;101230.00;5074488;27;45523;-76
2023/08/28 00:02:58;;;;;;;;;2.00;2.00;;;;;15.42;100.00;101257.34;5081108;27;48307;-75
2023/08/28 00:05:24;;;;;;;;;2.00;2.00;;;;;15.44;100.00;101261.66;5095575;27;45440;-75
2023/08/28 00:07:49;;;;;;;;;5.00;3.00;;;;;15.24;100.00;101231.81;5094549;27;45313;-75
2023/08/28 00:10:14;;;;;;;;;4.33;2.00;;;;;15.41;100.00;101256.47;5105382;27;45734;-75
2023/08/28 00:12:43;;;;;;;;;3.67;2.00;;;;;15.23;100.00;101224.75;5092963;27;45340;-74
2023/08/28 00:15:10;;;;;;;;;2.00;2.00;;;;;15.46;100.00;101253.56;5095340;27;45465;-76
2023/08/28 00:17:39;;;;;;;;;2.00;2.00;;;;;15.47;100.00;101250.81;5089733;27;45388;-75
2023/08/28 00:20:07;;;;;;;;;4.67;3.00;;;;;15.45;100.00;101252.69;5082747;27;45772;-75
2023/08/28 00:22:34;;;;;;;;;2.00;2.00;;;;;15.34;100.00;101236.50;5065144;27;47247;-75
2023/08/28 00:24:59;;;;;;;;;2.67;1.33;;;;;15.42;100.00;101250.22;5096103;27;45370;-75
2023/08/28 00:27:25;;;;;;;;;3.00;1.00;;;;;15.37;100.00;101238.13;5094244;27;45351;-75
2023/08/28 00:29:50;;;;;;;;;1.00;1.00;;;;;15.24;100.00;101221.16;5087722;27;45347;-75
2023/08/28 00:32:15;;;;;;;;;3.00;1.33;;;;;15.34;100.00;101239.16;5100253;27;46671;-75
2023/08/28 00:34:40;;;;;;;;;3.00;3.00;;;;;15.30;100.00;101232.28;5086362;27;45327;-75
2023/08/28 00:37:06;;;;;;;;;2.00;2.00;;;;;15.33;100.00;101240.09;5100611;27;45378;-74
2023/08/28 00:39:31;;;;;;;;;3.00;2.00;;;;;15.14;100.00;101204.84;5082420;27;45554;-75
2023/08/28 00:41:56;;;;;;;;;1.00;1.00;;;;;15.32;100.00;101229.53;5093179;27;45407;-75
2023/08/28 00:44:22;;;;;;;;;4.00;1.00;;;;;15.22;100.00;101207.03;5072565;27;46105;-75
2023/08/28 00:46:47;;;;;;;;;1.67;1.33;;;;;15.27;100.00;101215.63;5096158;27;45314;-75
2023/08/28 00:49:12;;;;;;;;;1.67;1.67;;;;;15.35;100.00;101237.34;5073014;28;45530;-75
2023/08/28 00:51:39;;;;;;;;;2.33;1.67;;;;;15.23;100.00;101209.63;5079966;27;45476;-75
2023/08/28 00:54:07;;;;;;;;;2.00;1.00;;;;;15.34;100.00;101227.66;5080615;27;45228;-76
2023/08/28 00:56:33;;;;;;;;;2.00;2.00;;;;;15.30;100.00;101226.09;5093484;27;45295;-75
2023/08/28 00:58:58;;;;;;;;;2.33;1.67;;;;;15.31;100.00;101225.16;5091590;27;45465;-75
2023/08/28 01:01:24;;;;;;;;;2.33;1.67;;;;;15.19;100.00;101210.75;5069150;27;46437;-75
2023/08/28 01:03:49;;;;;;;;;2.67;2.67;;;;;15.27;100.00;101213.81;5090540;27;45421;-75
2023/08/28 01:06:32;;;;;;;;;1.67;1.67;;;;;15.32;100.00;101222.38;5091816;27;45724;-76
2023/08/28 01:09:42;;;;;;;;;3.00;1.67;;;;;15.28;100.00;101217.34;5087879;27;45305;-75
2023/08/28 01:12:49;;;;;;;;;2.00;2.00;;;;;15.31;100.00;101217.16;5068353;27;45440;-75
2023/08/28 01:15:20;;;;;;;;;3.67;1.33;;;;;15.12;100.00;101191.59;5088165;27;45308;-75
2023/08/28 01:17:50;;;;;;;;;0.67;0.67;;;;;15.27;100.00;101216.50;5064142;28;45470;-76
2023/08/28 01:20:15;;;;;;;;;2.33;1.00;;;;;15.23;100.00;101209.63;5091622;27;45507;-75
2023/08/28 01:23:09;;;;;;;;;2.33;2.33;;;;;15.22;100.00;101210.56;5079484;27;47207;-75
2023/08/28 01:25:35;;;;;;;;;1.33;1.33;;;;;15.20;100.00;101208.94;5093325;27;45371;-76
2023/08/28 01:28:02;;;;;;;;;1.00;1.00;;;;;15.04;100.00;101185.03;5089230;27;45357;-75
2023/08/28 01:30:27;;;;;;;;;2.33;1.00;;;;;15.12;100.00;101188.94;5081314;27;45375;-75
2023/08/28 01:32:52;;;;;;;;;2.33;1.33;;;;;15.17;100.00;101194.00;5088755;27;45427;-75
2023/08/28 01:35:24;;;;;;;;;0.67;0.67;;;;;15.31;100.00;101220.69;5094579;27;45357;-75
2023/08/28 01:38:11;;;;;;;;;3.00;1.67;;;;;15.33;100.00;101212.59;5079799;27;45411;-74
2023/08/28 01:40:43;;;;;;;;;1.67;1.67;;;;;15.30;100.00;101204.78;5095574;27;45287;-75
2023/08/28 01:43:11;;;;;;;;;2.00;1.00;;;;;15.24;100.00;101184.69;5096279;27;45396;-75
2023/08/28 01:45:38;;;;;;;;;2.00;2.00;;;;;15.34;100.00;101206.31;5087635;27;45434;-75
2023/08/28 01:48:04;;;;;;;;;3.00;1.00;;;;;15.11;100.00;101160.59;5092304;27;45452;-75
2023/08/28 01:50:29;;;;;;;;;1.67;1.67;;;;;15.24;100.00;101192.69;5088471;27;45580;-75
2023/08/28 01:52:55;;;;;;;;;2.00;0.67;;;;;15.39;100.00;101213.06;5095564;27;46070;-75
2023/08/28 01:55:34;;;;;;;;;3.00;1.00;;;;;15.34;100.00;101193.00;5098107;27;45430;-75
2023/08/28 01:57:59;;;;;;;;;2.33;1.33;;;;;15.21;100.00;101165.38;5082448;27;45460;-75
2023/08/28 02:00:25;;;;;;;;;1.00;1.00;;;;;15.45;100.00;101202.03;5089591;27;45249;-75
2023/08/28 02:02:50;;;;;;;;;4.00;2.00;;;;;15.46;100.00;101201.09;5087495;27;45330;-76
2023/08/28 02:05:15;;;;;;;;;1.00;1.00;;;;;15.29;100.00;101161.28;5097355;27;45432;-74
2023/08/28 02:07:42;;;;;;;;;1.00;1.00;;;;;15.45;100.00;101182.50;5086071;27;45404;-75
2023/08/28 02:10:07;;;;;;;;;2.67;1.00;;;;;15.45;100.00;101183.38;5096939;27;45330;-75
2023/08/28 02:12:33;;;;;;;;;1.67;1.00;;;;;15.35;100.00;101171.56;5099274;27;45727;-76
2023/08/28 02:14:58;;;;;;;;;2.33;1.00;;;;;15.53;100.00;101190.94;5099074;27;45279;-75
2023/08/28 02:17:23;;;;;;;;;2.67;1.67;;;;;15.37;100.00;101160.81;5085880;27;45276;-75
2023/08/28 02:19:48;;;;;;;;;1.00;1.00;;;;;15.39;100.00;101177.56;5091001;27;45428;-75
2023/08/28 02:22:14;;;;;;;;;2.33;2.00;;;;;15.56;100.00;101186.28;5096406;27;46667;-75
2023/08/28 02:24:39;;;;;;;;;1.67;1.00;;;;;15.41;100.00;101165.03;5090708;27;45276;-75
2023/08/28 02:27:04;;;;;;;;;1.00;1.00;;;;;15.32;100.00;101150.44;5085952;27;45504;-75
2023/08/28 02:29:30;;;;;;;;;1.67;1.00;;;;;15.39;100.00;101162.44;5082488;27;45472;-76
2023/08/28 02:31:55;;;;;;;;;1.00;1.00;;;;;15.45;100.00;101170.06;5092645;27;45488;-74
2023/08/28 02:34:20;;;;;;;;;0.00;0.00;;;;;15.57;100.00;101195.16;5081071;27;45708;-74
2023/08/28 02:36:46;;;;;;;;;1.33;1.33;;;;;15.52;100.00;101173.22;5072654;27;45477;-74
2023/08/28 02:39:11;;;;;;;;;0.00;0.00;;;;;15.52;100.00;101191.91;5077438;28;45891;-74
2023/08/28 02:41:36;;;;;;;;;0.67;0.00;;;;;15.33;100.00;101160.16;5104440;27;49148;-74
2023/08/28 02:44:03;;;;;;;;;2.33;1.00;;;;;15.34;100.00;101174.34;5092284;27;45308;-73
2023/08/28 02:46:28;;;;;;;;;2.00;1.00;;;;;15.35;100.00;101176.91;5095315;27;45296;-73
2023/08/28 02:48:53;;;;;;;;;1.33;0.67;;;;;15.48;100.00;101188.56;5094784;27;45345;-74
2023/08/28 02:51:19;;;;;;;;;2.00;2.00;;;;;15.47;100.00;101201.97;5087135;27;45463;-74
2023/08/28 02:53:44;;;;;;;;;0.33;0.33;;;;;15.29;100.00;101165.75;5094225;27;45478;-74
2023/08/28 02:56:22;;;;;;;;;1.00;1.00;;;;;15.28;100.00;101170.22;5066797;27;45389;-74
2023/08/28 02:58:47;;;;;;;;;2.33;1.00;;;;;15.27;100.00;101170.31;5078392;27;45500;-74
2023/08/28 03:01:13;;;;;;;;;1.00;0.67;;;;;15.45;100.00;101198.50;5094714;27;46222;-74
2023/08/28 03:03:38;;;;;;;;;1.00;1.00;;;;;15.31;100.00;101183.38;5088883;27;45550;-74
2023/08/28 03:06:03;;;;;;;;;2.33;1.33;;;;;15.18;100.00;101157.56;5094003;27;45439;-74
2023/08/28 03:08:29;;;;;;;;;0.67;0.67;;;;;15.29;100.00;101179.94;5071299;28;45265;-73
2023/08/28 03:10:55;;;;;;;;;1.00;1.00;;;;;15.29;100.00;101181.75;5101103;27;45310;-74
2023/08/28 03:13:20;;;;;;;;;3.33;1.00;;;;;15.25;100.00;101182.91;5093694;27;45389;-74
2023/08/28 03:15:45;;;;;;;;;1.67;1.00;;;;;15.42;100.00;101209.38;5104708;27;45344;-74
2023/08/28 03:18:11;;;;;;;;;2.33;2.00;;;;;15.39;100.00;101209.56;5087998;27;45342;-74
2023/08/28 03:20:36;;;;;;;;;1.00;1.00;;;;;15.23;100.00;101192.78;5081916;27;48462;-74
2023/08/28 03:23:02;;;;;;;;;1.00;1.00;;;;;15.34;100.00;101212.50;5101664;27;45531;-74
2023/08/28 03:25:28;;;;;;;;;1.67;1.67;;;;;15.12;100.00;101180.09;5085322;27;45512;-74
2023/08/28 03:27:53;;;;;;;;;0.67;0.67;;;;;15.16;100.00;101186.09;5080395;27;45503;-74
2023/08/28 03:30:19;;;;;;;;;0.67;0.67;;;;;15.26;100.00;101197.91;5098194;27;45938;-74
2023/08/28 03:32:44;;;;;;;;;2.00;2.00;;;;;15.04;100.00;101174.38;5076158;27;45969;-74
2023/08/28 03:35:09;;;;;;;;;0.67;0.67;;;;;15.10;100.00;101190.00;5100036;27;45410;-74
2023/08/28 03:37:34;;;;;;;;;1.67;1.67;;;;;15.06;100.00;101185.78;5096019;27;45419;-74
2023/08/28 03:40:00;;;;;;;;;2.00;2.00;;;;;15.09;100.00;101215.78;5091211;27;46072;-74
2023/08/28 03:42:25;;;;;;;;;2.00;2.00;;;;;15.07;100.00;101201.69;5093123;27;45286;-74
2023/08/28 03:44:50;;;;;;;;;0.67;0.67;;;;;14.88;100.00;101189.56;5096783;27;45290;-74
2023/08/28 03:47:16;;;;;;;;;2.00;1.00;;;;;15.00;100.00;101200.34;5083481;27;45287;-74
2023/08/28 03:49:41;;;;;;;;;1.00;1.00;;;;;15.03;100.00;101223.25;5089214;27;47641;-74
2023/08/28 03:52:06;;;;;;;;;0.00;0.00;;;;;14.96;100.00;101214.78;5095408;27;45328;-73
2023/08/28 03:54:32;;;;;;;;;6.00;2.00;;;;;14.93;100.00;101200.78;5082862;27;45360;-74
2023/08/28 03:56:57;;;;;;;;;2.00;1.67;;;;;14.91;100.00;101210.69;5097635;27;45218;-73
2023/08/28 03:59:23;;;;;;;;;3.00;2.00;;;;;14.90;100.00;101207.16;5100661;27;45456;-73
2023/08/28 04:01:48;;;;;;;;;0.67;0.67;;;;;15.04;100.00;101225.84;5080709;27;45819;-73
2023/08/28 04:04:14;;;;;;;;;4.00;1.67;;;;;14.88;100.00;101210.84;5079888;27;45355;-74
2023/08/28 04:06:39;;;;;;;;;4.00;1.67;;;;;15.07;100.00;101241.66;5091589;27;45243;-74
2023/08/28 04:09:05;;;;;;;;;3.00;2.00;;;;;14.96;100.00;101217.44;5084513;27;46203;-74
2023/08/28 04:11:31;;;;;;;;;1.67;1.67;;;;;14.98;100.00;101223.56;5097717;27;45497;-74
2023/08/28 04:13:56;;;;;;;;;2.00;2.00;;;;;15.02;100.00;101219.75;5082923;27;45399;-74
2023/08/28 04:16:21;;;;;;;;;1.33;0.67;;;;;15.10;100.00;101241.47;5089137;27;45480;-73
2023/08/28 04:18:47;;;;;;;;;1.33;0.67;;;;;15.03;100.00;101223.25;5097426;27;45458;-73
2023/08/28 04:21:12;;;;;;;;;3.33;1.33;;;;;14.92;100.00;101194.59;5069427;28;45398;-74
2023/08/28 04:23:38;;;;;;;;;2.00;1.00;;;;;15.08;100.00;101214.03;5094863;27;45421;-74
2023/08/28 04:26:03;;;;;;;;;0.33;0.33;;;;;15.22;100.00;101239.00;5092898;27;45447;-74
2023/08/28 04:28:29;;;;;;;;;2.33;2.00;;;;;15.12;100.00;101212.91;5097985;27;45412;-74
2023/08/28 04:30:55;;;;;;;;;1.00;1.00;;;;;15.02;100.00;101203.75;5098627;27;45395;-74
2023/08/28 04:33:20;;;;;;;;;1.33;1.33;;;;;15.12;100.00;101218.25;5087254;27;45206;-74
2023/08/28 04:35:46;;;;;;;;;3.00;3.00;;;;;15.09;100.00;101205.13;5100902;27;45309;-74
2023/08/28 04:38:12;;;;;;;;;3.00;1.00;;;;;15.34;100.00;101244.50;5082453;27;46370;-74
2023/08/28 04:40:37;;;;;;;;;0.67;0.67;;;;;15.30;100.00;101242.09;5079058;28;45416;-74
2023/08/28 04:43:02;;;;;;;;;2.33;2.00;;;;;15.22;100.00;101213.22;5096620;27;45213;-75
2023/08/28 04:45:28;;;;;;;;;3.33;2.00;;;;;15.25;100.00;101205.06;5070158;27;45536;-74
2023/08/28 04:47:53;;;;;;;;;3.00;2.00;;;;;15.22;100.00;101191.91;5071148;27;47792;-74
2023/08/28 04:50:19;;;;;;;;;2.67;1.67;;;;;15.24;100.00;101194.50;5096740;27;45332;-74
2023/08/28 04:52:44;;;;;;;;;1.33;1.33;;;;;15.43;100.00;101216.41;5087508;27;45521;-74
2023/08/28 04:55:09;;;;;;;;;1.67;1.67;;;;;15.18;100.00;101179.75;5084596;27;45222;-74
2023/08/28 04:57:35;;;;;;;;;2.00;1.00;;;;;15.41;100.00;101202.34;5093737;27;46437;-74
2023/08/28 05:00:00;;;;;;;;;3.00;1.00;;;;;15.48;100.00;101225.88;5094177;27;45319;-74
2023/08/28 05:02:25;;;;;;;;;1.67;0.67;;;;;15.25;100.00;101172.25;5088730;27;45559;-74
2023/08/28 05:04:51;;;;;;;;;1.00;1.00;;;;;15.49;100.00;101211.59;5068967;27;45451;-74
2023/08/28 05:07:16;;;;;;;;;1.00;1.00;;;;;15.47;100.00;101202.81;5088278;27;46401;-74
2023/08/28 05:09:41;;;;;;;;;1.00;1.00;;;;;15.50;100.00;101204.47;5094581;27;45381;-74
2023/08/28 05:12:07;;;;;;;;;4.33;2.67;;;;;15.39;100.00;101193.56;5087582;27;45479;-76
2023/08/28 05:14:32;;;;;;;;;1.00;1.00;;;;;15.41;100.00;101197.00;5072247;27;45864;-74
2023/08/28 05:16:57;;;;;;;;;2.67;1.67;;;;;15.41;100.00;101186.34;5081681;27;48385;-74
2023/08/28 05:19:23;;;;;;;;;0.00;0.00;;;;;15.41;100.00;101197.84;5100325;27;45360;-74
2023/08/28 05:21:48;;;;;;;;;3.67;1.00;;;;;15.52;100.00;101199.88;5090861;27;45714;-74
2023/08/28 05:24:13;;;;;;;;;0.00;0.00;;;;;15.33;100.00;101177.94;5092714;27;45741;-74
2023/08/28 05:26:39;;;;;;;;;1.00;1.00;;;;;15.50;100.00;101201.81;5096070;27;45489;-74
2023/08/28 05:29:04;;;;;;;;;3.00;2.00;;;;;15.56;100.00;101218.28;5074964;27;45505;-74
2023/08/28 05:31:29;;;;;;;;;1.33;1.33;;;;;15.49;100.00;101208.94;5070016;28;45335;-73
2023/08/28 05:33:55;;;;;;;;;4.00;1.00;;;;;15.47;100.00;101201.97;5086601;27;45469;-74
2023/08/28 05:36:20;;;;;;;;;3.00;1.67;;;;;15.44;100.00;101196.81;5085753;27;46162;-74
2023/08/28 05:38:45;;;;;;;;;1.33;1.33;;;;;15.38;100.00;101198.03;5095486;27;45284;-73
2023/08/28 05:41:11;;;;;;;;;1.67;1.00;;;;;15.42;100.00;101196.03;5098614;27;45281;-74
2023/08/28 05:43:36;;;;;;;;;2.33;0.67;;;;;15.46;100.00;101208.22;5085999;27;45485;-74
2023/08/28 05:46:01;;;;;;;;;2.33;1.00;;;;;15.44;100.00;101192.34;5097494;27;45346;-74
2023/08/28 05:48:27;;;;;;;;;1.33;1.00;;;;;15.41;100.00;101175.69;5084738;27;45282;-74
2023/08/28 05:50:52;;;;;;;;;1.67;1.33;;;;;15.60;100.00;101209.16;5072046;27;45497;-74
2023/08/28 05:53:17;;;;;;;;;3.00;2.00;;;;;15.53;100.00;101185.63;5091865;27;45451;-74
2023/08/28 05:55:45;;;;;;;;;1.00;1.00;;;;;15.57;100.00;101198.66;5081016;27;48044;-73
2023/08/28 05:58:10;;;;;;;;;2.67;2.33;;;;;15.70;100.00;101211.25;5091840;27;45368;-74
2023/08/28 06:00:35;;;;;;;;;2.00;1.67;;;;;15.53;100.00;101180.28;5091322;27;45434;-75
2023/08/28 06:03:04;;;;;;;;;4.00;1.67;;;;;15.64;100.00;101200.00;5087120;27;45435;-77
2023/08/28 06:05:31;;;;;;;;;2.00;1.67;;;;;15.77;100.00;101213.41;5082997;27;45599;-76
2023/08/28 06:07:56;;;;;;;;;1.67;1.00;;;;;15.49;100.00;101158.28;5080944;27;45669;-76
2023/08/28 06:10:22;;;;;;;;;2.00;2.00;;;;;15.70;100.00;101196.09;5091015;27;45329;-76
2023/08/28 06:12:48;;;;;;;;;0.33;0.33;;;;;15.64;100.00;101165.31;5092291;27;45276;-76
2023/08/28 06:15:17;;;;;;;;;3.67;2.00;;;;;15.74;100.00;101162.09;5093675;27;45251;-76
2023/08/28 06:17:43;;;;;;;;;1.33;1.33;;;;;15.70;100.00;101155.25;5094978;27;45276;-76
2023/08/28 06:20:10;;;;;;;;;1.67;1.67;;;;;15.83;100.00;101165.06;5087044;27;45288;-75
2023/08/28 06:22:36;;;;;;;;;1.67;1.67;;;;;15.86;100.00;101156.84;5091124;27;45445;-76
2023/08/28 06:25:02;;;;;;;;;1.33;1.33;;;;;16.00;100.00;101194.16;5089142;27;46040;-76
2023/08/28 06:27:28;;;;;;;;;1.00;1.00;;;;;15.93;100.00;101179.53;5085766;27;45332;-76
2023/08/28 06:29:53;;;;;;;;;1.00;1.00;;;;;15.97;100.00;101178.34;5081300;27;45558;-75
2023/08/28 06:32:18;;;;;;;;;2.00;2.00;;;;;15.83;100.00;101159.72;5087882;27;45281;-76
2023/08/28 06:34:44;;;;;;;;;2.00;2.00;;;;;15.90;100.00;101165.53;5097855;27;46314;-76
2023/08/28 06:37:09;;;;;;;;;2.33;1.00;;;;;15.93;100.00;101157.31;5092743;27;45221;-75
2023/08/28 06:39:34;;;;;;;;;2.00;2.00;;;;;16.17;100.00;101183.28;5097779;27;45634;-75
2023/08/28 06:41:59;;;;;;;;;3.33;1.67;;;;;16.08;100.00;101151.84;5068743;27;45587;-76
2023/08/28 06:44:25;;;;;;;;;2.67;2.67;;;;;16.29;100.00;101180.78;5087593;27;45260;-75
2023/08/28 06:46:50;;;;;;;;;4.33;3.00;;;;;16.33;100.00;101183.13;5092970;27;45289;-75
2023/08/28 06:49:16;;;;;;;;;2.67;1.00;;;;;16.28;100.00;101176.41;5093843;27;45569;-75
2023/08/28 06:51:41;;;;;;;;;3.00;2.00;;;;;16.27;100.00;101180.00;5083240;27;45432;-76
2023/08/28 06:54:07;;;;;;;;;1.00;1.00;;;;;16.29;100.00;101176.31;5092691;27;45399;-75
2023/08/28 06:56:32;;;;;;;;;3.33;2.00;;;;;16.24;100.00;101172.19;5089081;27;45337;-75
2023/08/28 06:58:57;;;;;;;;;3.67;2.00;;;;;16.41;100.00;101196.84;5092558;27;45355;-76
2023/08/28 07:01:23;;;;;;;;;3.00;3.00;;;;;16.32;100.00;101173.44;5096300;27;45421;-74
2023/08/28 07:03:48;;;;;;;;;2.33;2.33;;;;;16.54;100.00;101203.09;5096134;27;48136;-74
2023/08/28 07:06:13;;;;;;;;;4.00;3.00;;;;;16.59;100.00;101208.16;5085466;27;45536;-75
2023/08/28 07:08:39;;;;;;;;;2.00;2.00;;;;;16.52;100.00;101183.63;5090342;27;46263;-75
2023/08/28 07:11:04;;;;;;;;;4.33;2.00;;;;;16.76;100.00;101199.91;5091671;27;45654;-75
2023/08/28 07:13:30;;;;;;;;;2.00;2.00;;;;;16.66;100.00;101180.09;5082585;27;47464;-75
2023/08/28 07:15:56;;;;;;;;;2.00;2.00;;;;;16.83;100.00;101192.34;5101522;27;45447;-75
2023/08/28 07:18:21;;;;;;;;;3.33;1.00;;;;;16.75;100.00;101167.97;5102504;27;45361;-75
2023/08/28 07:20:46;;;;;;;;;3.00;3.00;;;;;16.89;100.00;101182.09;5088887;27;45321;-74
2023/08/28 07:23:12;;;;;;;;;3.00;3.00;;;;;16.97;100.00;101190.47;5088095;27;46034;-74
2023/08/28 07:25:38;;;;;;;;;2.67;2.00;;;;;16.87;100.00;101176.00;5088502;27;45434;-75
2023/08/28 07:28:05;;;;;;;;;4.00;3.00;;;;;17.00;100.00;101190.25;5092893;27;45296;-74
2023/08/28 07:30:31;;;;;;;;;2.00;2.00;;;;;17.11;100.00;101182.34;5101647;27;45315;-74
2023/08/28 07:32:56;;;;;;;;;2.67;2.67;;;;;17.12;100.00;101175.19;5094864;27;45909;-74
2023/08/28 07:35:21;;;;;;;;;2.00;2.00;;;;;17.24;100.00;101179.72;5066157;28;45622;-74
2023/08/28 07:37:47;;;;;;;;;3.67;3.67;;;;;17.25;100.00;101145.78;5092687;27;45775;-74
2023/08/28 07:40:12;;;;;;;;;4.00;3.00;;;;;17.51;100.00;101169.75;5101624;27;45573;-74
2023/08/28 07:42:37;;;;;;;;;5.33;3.33;;;;;17.81;100.00;101184.63;5097491;27;45521;-74
2023/08/28 07:45:04;;;;;;;;;4.33;3.33;;;;;17.87;100.00;101176.16;5097093;27;45617;-74
2023/08/28 07:47:29;;;;;;;;;2.33;2.33;;;;;17.81;100.00;101158.75;5097783;27;45342;-74
2023/08/28 07:49:55;;;;;;;;;3.00;3.00;;;;;17.97;100.00;101193.28;5086753;27;45357;-74
2023/08/28 07:52:20;;;;;;;;;2.00;2.00;;;;;17.73;100.00;101147.75;5085774;27;46568;-74
2023/08/28 07:54:47;;;;;;;;;3.00;3.00;;;;;17.82;100.00;101162.28;5070369;27;45823;-76
2023/08/28 07:57:12;;;;;;;;;2.00;2.00;;;;;17.97;100.00;101180.75;5087041;27;45387;-77
2023/08/28 07:59:37;;;;;;;;;3.00;3.00;;;;;17.86;100.00;101156.59;5087942;27;45361;-76
2023/08/28 08:02:04;;;;;;;;;1.00;1.00;;;;;17.96;100.00;101168.38;5095322;27;46239;-77
2023/08/28 08:04:31;;;;;;;;;2.00;2.00;;;;;18.07;100.00;101167.56;5069741;28;45317;-76
2023/08/28 08:06:57;;;;;;;;;2.00;2.00;;;;;18.09;100.00;101174.53;5095372;27;45405;-76
2023/08/28 08:09:23;;;;;;;;;2.00;2.00;;;;;18.03;100.00;101153.53;5092901;27;45437;-76
2023/08/28 08:11:49;;;;;;;;;1.33;1.33;;;;;18.16;100.00;101165.06;5098573;27;45297;-76
2023/08/28 08:14:14;;;;;;;;;2.00;2.00;;;;;18.35;100.00;101193.19;5094152;27;45414;-76
2023/08/28 08:16:39;;;;;;;;;1.33;1.33;;;;;18.37;100.00;101189.44;5095511;27;45359;-76
2023/08/28 08:19:05;;;;;;;;;3.67;1.67;;;;;18.46;100.00;101195.94;5090455;27;45351;-76
2023/08/28 08:21:30;;;;;;;;;1.00;1.00;;;;;18.44;100.00;101189.84;5085660;27;46343;-76
2023/08/28 08:23:55;;;;;;;;;3.00;2.00;;;;;18.49;100.00;101195.69;5087445;27;45451;-73
2023/08/28 08:26:21;;;;;;;;;3.00;2.00;;;;;18.39;100.00;101190.16;5082363;27;45572;-76
2023/08/28 08:28:47;;;;;;;;;2.67;2.00;;;;;18.50;100.00;101186.75;5089697;27;45295;-74
2023/08/28 08:31:12;;;;;;;;;3.00;3.00;;;;;18.54;100.00;101188.22;5093462;27;46359;-76
2023/08/28 08:33:38;;;;;;;;;3.00;3.00;;;;;18.60;100.00;101190.44;5092751;27;45372;-76
2023/08/28 08:36:04;;;;;;;;;3.00;3.00;;;;;18.60;100.00;101182.41;5084723;27;45313;-76
2023/08/28 08:38:29;;;;;;;;;2.00;2.00;;;;;18.78;100.00;101207.84;5083774;27;45757;-76
2023/08/28 08:40:58;;;;;;;;;1.67;1.67;;;;;18.79;100.00;101187.25;5089526;27;45500;-76
2023/08/28 08:43:25;;;;;;;;;3.33;2.00;;;;;18.88;100.00;101186.56;5087358;27;45277;-74
2023/08/28 08:45:59;;;;;;;;;2.67;2.00;;;;;18.84;98.68;101188.63;5091656;27;45312;-74
2023/08/28 08:48:25;;;;;;;;;2.67;1.00;;;;;18.73;98.49;101167.13;5081277;27;46154;-74
2023/08/28 08:51:04;;;;;;;;;3.00;3.00;;;;;18.80;100.00;101159.47;5083701;27;46406;-74
2023/08/28 08:53:33;;;;;;;;;2.00;2.00;;;;;19.16;98.03;101205.81;5082051;27;45798;-74
2023/08/28 08:56:03;;;;;;;;;2.67;2.67;;;;;19.08;93.85;101199.28;5094813;27;45636;-74
2023/08/28 08:58:30;;;;;;;;;2.00;1.00;;;;;19.10;95.32;101213.44;5093695;27;45454;-74
2023/08/28 09:00:57;;;;;;;;;4.00;2.00;;;;;19.17;95.61;101212.84;5088086;27;45407;-74
2023/08/28 09:03:24;;;;;;;;;3.00;3.00;;;;;19.10;99.00;101189.31;5092083;27;45371;-74
2023/08/28 09:05:50;;;;;;;;;1.67;1.67;;;;;19.38;97.26;101215.72;5093723;27;45350;-74
2023/08/28 09:08:16;;;;;;;;;1.67;1.67;;;;;19.54;97.73;101210.91;5090342;27;45457;-74
2023/08/28 09:10:44;;;;;;;;;2.67;2.67;;;;;19.76;95.09;101210.91;5086898;27;46475;-74
2023/08/28 09:13:09;;;;;;;;;3.00;3.00;;;;;19.71;93.56;101180.91;5094136;27;45303;-74
2023/08/28 09:15:34;;;;;;;;;2.00;2.00;;;;;19.85;89.88;101195.94;5091851;27;45438;-74
2023/08/28 09:18:02;;;;;;;;;3.00;3.00;;;;;19.82;90.33;101182.75;5092005;27;45317;-75
2023/08/28 09:20:27;;;;;;;;;2.33;1.33;;;;;19.95;91.13;101175.44;5080072;27;47135;-75
2023/08/28 09:22:53;;;;;;;;;0.33;0.33;;;;;20.17;95.06;101188.84;5088457;27;45328;-74
2023/08/28 09:25:23;;;;;;;;;3.00;3.00;;;;;20.22;85.12;101201.91;5087372;27;45342;-74
2023/08/28 09:27:51;;;;;;;;;2.67;2.33;;;;;20.17;87.58;101202.25;5084191;27;45581;-75
2023/08/28 09:30:37;;;;;;;;;3.00;3.00;;;;;20.12;86.48;101201.75;5095146;27;45372;-75
2023/08/28 09:33:06;;;;;;;;;2.00;2.00;;;;;20.07;83.88;101201.28;5080819;27;45372;-74
2023/08/28 09:35:40;;;;;;;;;4.67;2.67;;;;;19.91;89.31;101198.13;5086647;27;45493;-75
2023/08/28 09:38:06;;;;;;;;;2.00;2.00;;;;;19.81;90.13;101196.28;5098810;27;45422;-75
2023/08/28 09:40:34;;;;;;;;;5.00;3.00;;;;;19.53;91.09;101187.75;5065607;27;48057;-75
2023/08/28 09:43:00;;;;;;;;;5.00;3.00;;;;;19.36;94.42;101198.03;5089923;27;45342;-75
2023/08/28 09:45:33;;;;;;;;;4.00;4.00;;;;;19.14;98.60;101197.00;5086492;27;45297;-76
2023/08/28 09:48:02;;;;;;;;;4.67;3.33;;;;;18.94;100.00;101178.06;5094489;27;45513;-76
2023/08/28 09:50:28;;;;;;;;;5.00;3.67;;;;;18.97;100.00;101202.81;5080189;27;46217;-77
2023/08/28 09:52:54;;;;;;;;;5.00;4.00;;;;;18.93;100.00;101195.97;5085168;27;45446;-76
2023/08/28 09:55:20;;;;;;;;;3.67;3.00;;;;;18.93;100.00;101184.38;5097503;27;45497;-77
2023/08/28 09:57:46;;;;;;;;;4.33;4.33;;;;;18.72;100.00;101152.00;5089235;27;45477;-76
2023/08/28 10:00:13;;;;;;;;;3.00;3.00;;;;;18.84;100.00;101167.19;5066518;27;46327;-76
2023/08/28 10:02:39;;;;;;;;;5.00;4.00;;;;;19.04;100.00;101192.47;5094396;27;45400;-75
2023/08/28 10:05:08;;;;;;;;;4.67;4.67;;;;;19.14;100.00;101188.94;5079885;27;45371;-75
2023/08/28 10:07:38;;;;;;;;;4.00;4.00;;;;;19.41;100.00;101202.09;5097196;27;45681;-75
2023/08/28 10:10:05;;;;;;;;;6.67;4.00;;;;;19.60;100.00;101202.38;5095497;27;46986;-74
2023/08/28 10:12:31;;;;;;;;;3.00;3.00;;;;;19.50;95.70;101176.41;5097802;27;45280;-75
2023/08/28 10:15:00;;;;;;;;;3.33;3.33;;;;;19.67;98.58;101192.00;5096678;27;45368;-74
2023/08/28 10:17:29;;;;;;;;;3.33;3.33;;;;;19.86;96.00;101204.84;5095884;27;45306;-74
2023/08/28 10:19:58;;;;;;;;;7.00;3.00;;;;;19.88;93.03;101205.56;5080977;27;48733;-75
2023/08/28 10:22:25;;;;;;;;;2.00;2.00;;;;;20.03;94.63;101218.63;5083586;27;45383;-75
2023/08/28 10:24:52;;;;;;;;;4.00;4.00;;;;;20.02;90.11;101195.44;5076831;27;45398;-75
2023/08/28 10:27:20;;;;;;;;;4.67;3.33;;;;;20.18;89.18;101205.81;5101177;27;45272;-74
2023/08/28 10:29:49;;;;;;;;;2.00;2.00;;;;;20.06;89.76;101172.72;5101985;27;45502;-75
2023/08/28 10:32:15;;;;;;;;;3.00;3.00;;;;;20.21;86.95;101176.88;5095643;27;45523;-74
2023/08/28 10:34:44;;;;;;;;;4.67;2.67;;;;;20.51;87.24;101208.47;5095890;27;45378;-75
2023/08/28 10:37:11;;;;;;;;;2.33;2.33;;;;;20.56;87.99;101197.31;5084425;27;45927;-75
2023/08/28 10:39:43;;;;;;;;;2.00;2.00;;;;;20.56;84.59;101202.69;5094197;27;46494;-75
2023/08/28 10:42:10;;;;;;;;;2.00;2.00;;;;;20.47;82.86;101188.19;5099953;27;45291;-75
2023/08/28 10:44:37;;;;;;;;;3.00;2.67;;;;;20.63;84.41;101220.03;5089738;27;45465;-75
2023/08/28 10:47:03;;;;;;;;;2.00;2.00;;;;;20.51;83.20;101216.53;5083078;27;45446;-75
2023/08/28 10:49:28;;;;;;;;;3.00;2.67;;;;;20.42;84.87;101195.75;5086282;27;45415;-74
2023/08/28 10:52:06;;;;;;;;;3.00;3.00;;;;;20.49;87.83;101183.53;5094032;27;45471;-75
2023/08/28 10:54:42;;;;;;;;;1.33;1.33;;;;;20.46;83.74;101189.16;5096761;27;45491;-75
2023/08/28 10:57:21;;;;;;;;;3.00;3.00;;;;;20.56;85.92;101176.69;5084239;27;45309;-74
2023/08/28 10:59:48;;;;;;;;;3.00;2.67;;;;;20.69;82.39;101198.88;5087975;27;45457;-75
2023/08/28 11:02:13;;;;;;;;;1.67;1.67;;;;;20.89;85.90;101205.28;5095526;27;45339;-74
2023/08/28 11:04:39;;;;;;;;;3.00;3.00;;;;;20.97;80.86;101210.88;5087505;27;45429;-74
2023/08/28 11:07:08;;;;;;;;;2.33;1.67;;;;;20.95;82.44;101183.25;5091015;27;45868;-75
2023/08/28 11:09:36;;;;;;;;;1.67;1.00;;;;;21.27;86.14;101210.13;5101609;27;48205;-75
2023/08/28 11:12:01;;;;;;;;;4.00;2.33;;;;;21.36;77.84;101203.97;5103490;27;45387;-75
2023/08/28 11:14:41;;;;;;;;;4.67;3.00;;;;;21.38;76.74;101201.13;5090574;27;45335;-75
2023/08/28 11:17:11;;;;;;;;;4.00;3.00;;;;;21.40;75.67;101200.03;5084583;27;45499;-74